Time;durP1;ratioP1;P1;durP2;ratioP2;P2;SDS_P1;SDS_P2;PMS_P1;PMS_P2;Temp;Humidity;BMP_temperature;BMP_pressure;BME280_temperature;BME280_humidity;BME280_pressure;Samples;Min_cycle;Max_cycle;Signal;HPM_P1;HPM_P2
2023/12/22 00:00:47;;;;;;;17.33;2.90;;;11.40;99.90;;;;;;7284666;19;20191;-76
2023/12/22 00:03:18;;;;;;;18.77;2.90;;;11.30;99.90;;;;;;7287628;19;20192;-76
2023/12/22 00:05:44;;;;;;;18.27;3.37;;;11.40;99.90;;;;;;7285277;19;20290;-77
2023/12/22 00:08:10;;;;;;;21.73;3.60;;;11.50;99.90;;;;;;7283348;19;20187;-76
2023/12/22 00:10:36;;;;;;;19.23;2.80;;;11.40;99.90;;;;;;7284201;19;20991;-76
2023/12/22 00:13:01;;;;;;;17.33;2.87;;;11.30;99.90;;;;;;7284447;19;20227;-76
2023/12/22 00:15:27;;;;;;;12.20;2.40;;;10.90;99.90;;;;;;7284850;19;20183;-76
2023/12/22 00:17:53;;;;;;;14.97;2.20;;;10.70;99.90;;;;;;7290463;19;20182;-77
2023/12/22 00:20:19;;;;;;;14.37;2.00;;;10.50;99.90;;;;;;7306044;19;20187;-76
2023/12/22 00:22:45;;;;;;;15.50;1.93;;;10.20;99.90;;;;;;7283894;19;20592;-76
2023/12/22 00:25:10;;;;;;;12.20;1.67;;;10.10;99.90;;;;;;7283571;19;20205;-76
2023/12/22 00:27:36;;;;;;;15.03;1.77;;;9.90;99.90;;;;;;7283222;19;20246;-76
2023/12/22 00:30:02;;;;;;;12.27;1.80;;;9.80;99.90;;;;;;7282505;19;20294;-75
2023/12/22 00:32:34;;;;;;;13.90;2.13;;;9.70;99.90;;;;;;7282537;19;20192;-76
2023/12/22 00:35:00;;;;;;;14.30;2.17;;;9.70;99.90;;;;;;7279671;19;20192;-76
2023/12/22 00:37:26;;;;;;;12.20;1.93;;;9.70;99.90;;;;;;7279517;19;20193;-76
2023/12/22 00:39:52;;;;;;;16.13;2.53;;;9.80;99.90;;;;;;7300871;19;20189;-76
2023/12/22 00:42:17;;;;;;;19.07;2.87;;;9.80;99.90;;;;;;7290457;19;20196;-76
2023/12/22 00:44:43;;;;;;;16.20;2.80;;;9.60;99.90;;;;;;7280391;19;20193;-77
2023/12/22 00:47:09;;;;;;;24.10;2.63;;;9.60;99.90;;;;;;7278103;19;20729;-77
2023/12/22 00:49:34;;;;;;;24.27;3.17;;;9.50;99.90;;;;;;7279201;19;20673;-77
2023/12/22 00:52:00;;;;;;;16.00;2.93;;;9.50;99.90;;;;;;7279477;19;20211;-76
2023/12/22 00:54:26;;;;;;;23.70;3.47;;;9.50;99.90;;;;;;7280795;19;20188;-76
2023/12/22 00:56:51;;;;;;;20.50;3.13;;;9.40;99.90;;;;;;7302293;19;20185;-76
2023/12/22 00:59:17;;;;;;;24.40;3.07;;;9.40;99.90;;;;;;7281591;19;20212;-77
2023/12/22 01:01:44;;;;;;;26.43;4.07;;;9.50;99.90;;;;;;7279540;19;20205;-76
2023/12/22 01:04:16;;;;;;;18.97;3.10;;;9.60;99.90;;;;;;7281535;19;20714;-76
2023/12/22 01:06:42;;;;;;;18.73;3.13;;;9.70;99.90;;;;;;7279590;19;20210;-76
2023/12/22 01:09:08;;;;;;;25.87;3.47;;;9.80;99.90;;;;;;7279166;19;20214;-76
2023/12/22 01:11:34;;;;;;;29.90;4.03;;;9.90;99.90;;;;;;7280986;19;20198;-76
2023/12/22 01:13:59;;;;;;;25.30;3.57;;;10.00;99.90;;;;;;7279505;19;20182;-76
2023/12/22 01:16:31;;;;;;;24.07;3.60;;;10.10;99.90;;;;;;7277892;19;20199;-75
2023/12/22 01:18:57;;;;;;;24.17;2.93;;;10.10;99.90;;;;;;7279471;19;20187;-76
2023/12/22 01:21:23;;;;;;;26.30;3.40;;;10.10;99.90;;;;;;7287090;19;20668;-76
2023/12/22 01:23:49;;;;;;;26.53;3.43;;;10.20;99.90;;;;;;7299654;19;20200;-75
2023/12/22 01:26:14;;;;;;;22.07;3.30;;;10.20;99.90;;;;;;7279438;19;20231;-75
2023/12/22 01:28:40;;;;;;;27.10;3.40;;;10.40;99.90;;;;;;7278553;19;20662;-75
2023/12/22 01:31:06;;;;;;;17.10;3.17;;;10.40;99.90;;;;;;7278710;19;20717;-76
2023/12/22 01:33:31;;;;;;;21.00;3.63;;;10.40;99.90;;;;;;7281473;19;20186;-76
2023/12/22 01:35:57;;;;;;;29.40;4.20;;;10.40;99.90;;;;;;7280781;19;20191;-76
2023/12/22 01:38:23;;;;;;;29.83;4.63;;;10.40;99.90;;;;;;7288033;19;20191;-76
2023/12/22 01:40:49;;;;;;;24.13;3.93;;;10.40;99.90;;;;;;7301260;19;20343;-77
2023/12/22 01:43:16;;;;;;;20.37;3.47;;;10.40;99.90;;;;;;7279023;19;20545;-76
2023/12/22 01:45:45;;;;;;;23.80;3.80;;;10.40;99.90;;;;;;7282178;19;20187;-76
2023/12/22 01:48:11;;;;;;;23.97;4.23;;;10.30;99.90;;;;;;7278488;19;20199;-76
2023/12/22 01:50:39;;;;;;;20.27;3.87;;;10.30;99.90;;;;;;7279599;19;20197;-76
2023/12/22 01:53:04;;;;;;;22.43;3.33;;;10.20;99.90;;;;;;7286721;19;20198;-75
2023/12/22 01:55:30;;;;;;;23.03;3.50;;;10.20;99.90;;;;;;7286233;19;20269;-76
2023/12/22 01:57:56;;;;;;;22.07;4.03;;;10.20;99.90;;;;;;7288210;19;20713;-76
2023/12/22 02:00:22;;;;;;;27.17;4.63;;;10.30;99.90;;;;;;7304292;19;20214;-76
2023/12/22 02:02:48;;;;;;;28.10;4.03;;;10.40;99.90;;;;;;7299612;19;20183;-76
2023/12/22 02:05:14;;;;;;;21.60;3.77;;;10.40;99.90;;;;;;7287250;19;20206;-76
2023/12/22 02:07:41;;;;;;;24.47;3.80;;;10.40;99.90;;;;;;7286135;19;20179;-76
2023/12/22 02:10:13;;;;;;;24.43;4.80;;;10.40;99.90;;;;;;7287164;19;20205;-76
2023/12/22 02:12:39;;;;;;;23.17;3.87;;;10.30;99.90;;;;;;7286221;19;20200;-75
2023/12/22 02:15:06;;;;;;;27.57;3.90;;;10.40;99.90;;;;;;7285640;19;20195;-77
2023/12/22 02:17:48;;;;;;;24.60;4.73;;;10.40;99.90;;;;;;7284327;19;20192;-76
2023/12/22 02:20:14;;;;;;;23.77;3.83;;;10.50;99.90;;;;;;7283669;19;20195;-77
2023/12/22 02:22:40;;;;;;;17.37;3.30;;;10.40;99.90;;;;;;7285124;19;20269;-76
2023/12/22 02:25:06;;;;;;;18.37;3.80;;;10.40;99.90;;;;;;7284530;19;20608;-77
2023/12/22 02:27:44;;;;;;;20.57;3.80;;;10.40;99.90;;;;;;7282223;19;20219;-76
2023/12/22 02:30:15;;;;;;;24.87;3.60;;;10.40;99.90;;;;;;7282457;19;20229;-76
2023/12/22 02:32:44;;;;;;;18.83;2.80;;;10.30;99.90;;;;;;7284249;19;20220;-76
2023/12/22 02:35:14;;;;;;;20.67;2.93;;;10.30;99.90;;;;;;7281916;19;20197;-76
2023/12/22 02:37:41;;;;;;;13.77;2.53;;;10.40;99.90;;;;;;7280769;19;20576;-76
2023/12/22 02:40:09;;;;;;;15.67;2.53;;;10.30;99.90;;;;;;7283496;19;20661;-77
2023/12/22 02:42:36;;;;;;;18.17;2.30;;;10.30;99.90;;;;;;7283503;19;20220;-77
2023/12/22 02:45:04;;;;;;;13.07;1.90;;;10.20;99.90;;;;;;7285257;19;20201;-77
2023/12/22 02:47:30;;;;;;;9.30;1.87;;;10.20;99.90;;;;;;7285582;19;20201;-76
2023/12/22 02:49:55;;;;;;;10.03;1.73;;;10.20;99.90;;;;;;7283467;19;20291;-77
2023/12/22 02:52:21;;;;;;;12.70;2.20;;;10.20;99.90;;;;;;7304217;19;20202;-76
2023/12/22 02:54:47;;;;;;;17.23;1.97;;;10.20;99.90;;;;;;7284793;19;20189;-76
2023/12/22 02:57:13;;;;;;;13.47;2.30;;;10.20;99.90;;;;;;7283822;19;20189;-76
2023/12/22 02:59:39;;;;;;;11.27;2.03;;;10.20;99.90;;;;;;7285019;19;20203;-77
2023/12/22 03:02:05;;;;;;;13.67;2.40;;;10.20;99.90;;;;;;7280714;19;20262;-77
2023/12/22 03:04:31;;;;;;;18.07;2.73;;;10.20;99.90;;;;;;7281838;19;20190;-77
2023/12/22 03:06:56;;;;;;;17.63;3.07;;;10.10;99.90;;;;;;7281429;19;20190;-77
2023/12/22 03:09:22;;;;;;;15.73;3.00;;;10.10;99.90;;;;;;7301135;19;20193;-76
2023/12/22 03:11:49;;;;;;;14.57;2.40;;;10.00;99.90;;;;;;7294082;19;20219;-77
2023/12/22 03:14:14;;;;;;;18.30;3.30;;;9.90;99.90;;;;;;7282450;19;20219;-77
2023/12/22 03:16:40;;;;;;;15.77;3.30;;;9.90;99.90;;;;;;7282511;19;20596;-76
2023/12/22 03:19:09;;;;;;;21.43;3.70;;;9.90;99.90;;;;;;7282464;19;20195;-77
2023/12/22 03:21:35;;;;;;;20.93;3.67;;;10.00;99.90;;;;;;7280975;19;20197;-77
2023/12/22 03:24:00;;;;;;;20.70;3.57;;;10.00;99.90;;;;;;7281507;19;20190;-77
2023/12/22 03:26:27;;;;;;;23.27;4.27;;;10.00;99.90;;;;;;7280124;19;20208;-77
2023/12/22 03:28:53;;;;;;;20.53;3.37;;;10.00;99.90;;;;;;7290183;19;20233;-77
2023/12/22 03:31:19;;;;;;;24.30;3.97;;;10.00;99.90;;;;;;7305448;19;20765;-77
2023/12/22 03:33:45;;;;;;;21.90;3.27;;;10.00;99.90;;;;;;7282069;19;20681;-76
2023/12/22 03:36:10;;;;;;;19.53;3.30;;;9.90;99.90;;;;;;7279965;19;20216;-76
2023/12/22 03:38:36;;;;;;;25.00;3.43;;;9.90;99.90;;;;;;7283297;19;20191;-77
2023/12/22 03:41:08;;;;;;;22.10;3.70;;;9.90;99.90;;;;;;7281929;19;20197;-77
2023/12/22 03:43:34;;;;;;;23.20;3.33;;;9.90;99.90;;;;;;7282321;19;20194;-77
2023/12/22 03:46:00;;;;;;;28.90;3.83;;;9.90;99.90;;;;;;7282461;19;20222;-76
2023/12/22 03:48:25;;;;;;;25.10;3.70;;;9.90;99.90;;;;;;7280172;19;20190;-76
2023/12/22 03:50:51;;;;;;;20.90;4.03;;;9.80;99.90;;;;;;7304123;19;20231;-76
2023/12/22 03:53:17;;;;;;;25.07;3.57;;;9.80;99.90;;;;;;7281770;19;20196;-77
2023/12/22 03:55:43;;;;;;;29.67;4.63;;;9.80;99.90;;;;;;7281523;19;20196;-76
2023/12/22 03:58:10;;;;;;;27.77;3.73;;;9.90;99.90;;;;;;7281678;19;20519;-76
2023/12/22 04:00:35;;;;;;;28.17;3.97;;;9.90;99.90;;;;;;7280514;19;20273;-76
2023/12/22 04:03:01;;;;;;;26.07;3.77;;;9.90;99.90;;;;;;7280856;19;20250;-77
2023/12/22 04:05:27;;;;;;;26.60;4.40;;;10.00;99.90;;;;;;7280292;19;20203;-76
2023/12/22 04:07:53;;;;;;;26.57;4.33;;;10.00;99.90;;;;;;7289032;19;20212;-76
2023/12/22 04:10:19;;;;;;;23.43;3.80;;;10.10;99.90;;;;;;7302091;19;20228;-77
2023/12/22 04:12:45;;;;;;;32.03;4.30;;;10.20;99.90;;;;;;7282561;19;20603;-77
2023/12/22 04:15:11;;;;;;;25.00;3.93;;;10.20;99.90;;;;;;7279472;19;20216;-76
2023/12/22 04:17:36;;;;;;;30.13;4.73;;;10.20;99.90;;;;;;7279779;19;20200;-77
2023/12/22 04:20:08;;;;;;;31.83;4.40;;;10.20;99.90;;;;;;7281038;19;20721;-78
2023/12/22 04:22:34;;;;;;;27.87;4.80;;;10.30;99.90;;;;;;7281083;19;20195;-77
2023/12/22 04:25:00;;;;;;;27.57;4.07;;;10.10;99.90;;;;;;7281642;19;20202;-77
2023/12/22 04:27:26;;;;;;;23.87;3.70;;;10.10;99.90;;;;;;7277171;19;20718;-77
2023/12/22 04:29:52;;;;;;;33.03;4.50;;;10.00;99.90;;;;;;7303263;19;20196;-76
2023/12/22 04:32:18;;;;;;;31.33;4.00;;;10.00;99.90;;;;;;7281401;19;20207;-77
2023/12/22 04:34:43;;;;;;;29.57;4.07;;;10.00;99.90;;;;;;7279056;19;20575;-76
2023/12/22 04:37:09;;;;;;;23.10;3.60;;;9.80;99.90;;;;;;7279891;19;20875;-77
2023/12/22 04:39:35;;;;;;;27.37;3.67;;;9.70;99.90;;;;;;7281356;19;20202;-77
2023/12/22 04:42:01;;;;;;;29.73;4.33;;;9.70;99.90;;;;;;7278473;19;20193;-77
2023/12/22 04:44:27;;;;;;;30.87;4.07;;;9.70;99.90;;;;;;7281425;19;20785;-76
2023/12/22 04:46:52;;;;;;;30.83;4.30;;;9.70;99.90;;;;;;7301326;19;20199;-77
2023/12/22 04:49:18;;;;;;;32.13;4.50;;;9.70;99.90;;;;;;7278973;19;20188;-77
2023/12/22 04:51:44;;;;;;;25.63;4.03;;;9.80;99.90;;;;;;7279593;19;20214;-77
2023/12/22 04:54:10;;;;;;;35.03;5.73;;;9.80;99.90;;;;;;7278948;19;20193;-77
2023/12/22 04:56:36;;;;;;;34.30;5.00;;;9.90;99.90;;;;;;7280283;19;20194;-77
2023/12/22 04:59:01;;;;;;;34.03;4.67;;;9.80;99.90;;;;;;7279529;19;20497;-77
2023/12/22 05:01:27;;;;;;;32.50;4.90;;;9.80;99.90;;;;;;7279578;19;20201;-76
2023/12/22 05:03:54;;;;;;;34.60;4.43;;;9.90;99.90;;;;;;7295014;19;20722;-77
2023/12/22 05:06:20;;;;;;;38.00;4.67;;;9.90;99.90;;;;;;7300239;19;20187;-76
2023/12/22 05:08:46;;;;;;;32.90;5.27;;;9.90;99.90;;;;;;7279341;19;20314;-77
2023/12/22 05:11:12;;;;;;;37.53;5.13;;;10.00;99.90;;;;;;7278899;19;20206;-76
2023/12/22 05:13:44;;;;;;;32.37;4.97;;;10.00;99.90;;;;;;7280826;19;20216;-76
2023/12/22 05:16:10;;;;;;;34.40;5.30;;;9.90;99.90;;;;;;7281268;19;20828;-77
2023/12/22 05:18:36;;;;;;;27.17;5.30;;;10.00;99.90;;;;;;7280136;19;20186;-76
2023/12/22 05:21:02;;;;;;;32.80;5.27;;;10.00;99.90;;;;;;7280142;19;20202;-77
2023/12/22 05:23:28;;;;;;;36.87;5.33;;;10.10;99.90;;;;;;7278827;19;20553;-76
2023/12/22 05:25:54;;;;;;;30.57;4.97;;;10.00;99.90;;;;;;7282425;19;20244;-76
2023/12/22 05:28:20;;;;;;;27.80;4.53;;;10.00;99.90;;;;;;7301285;19;20225;-77
2023/12/22 05:30:47;;;;;;;25.70;4.43;;;10.00;99.90;;;;;;7279561;19;20749;-77
2023/12/22 05:33:12;;;;;;;40.20;5.23;;;10.00;99.90;;;;;;7277791;19;20204;-77
2023/12/22 05:35:38;;;;;;;33.23;5.80;;;10.10;99.90;;;;;;7278973;19;20184;-76
2023/12/22 05:38:04;;;;;;;26.50;3.70;;;10.10;99.90;;;;;;7278499;19;20194;-77
2023/12/22 05:40:32;;;;;;;29.57;4.57;;;10.10;99.90;;;;;;7279304;19;20291;-76
2023/12/22 05:42:57;;;;;;;34.73;6.20;;;10.10;99.90;;;;;;7278402;19;20646;-77
2023/12/22 05:45:24;;;;;;;28.90;4.80;;;10.20;99.90;;;;;;7289616;19;20206;-77
2023/12/22 05:47:50;;;;;;;33.30;5.03;;;10.30;99.90;;;;;;7302268;19;20194;-77
2023/12/22 05:50:16;;;;;;;33.93;5.23;;;10.30;99.90;;;;;;7279250;19;20192;-76
2023/12/22 05:52:45;;;;;;;31.03;4.30;;;10.40;99.90;;;;;;7280466;19;20603;-77
2023/12/22 05:55:11;;;;;;;33.80;4.93;;;10.40;99.90;;;;;;7279236;19;20289;-76
2023/12/22 05:57:37;;;;;;;29.27;4.53;;;10.50;99.90;;;;;;7276587;19;20281;-76
2023/12/22 06:00:07;;;;;;;24.60;4.47;;;10.50;99.90;;;;;;7277009;19;20199;-76
2023/12/22 06:02:33;;;;;;;26.90;4.17;;;10.50;99.90;;;;;;7277871;19;20218;-77
2023/12/22 06:04:59;;;;;;;24.67;4.07;;;10.60;99.90;;;;;;7278022;19;20202;-76
2023/12/22 06:07:25;;;;;;;30.03;4.70;;;10.60;99.90;;;;;;7278512;19;20881;-75
2023/12/22 06:09:51;;;;;;;30.23;4.63;;;10.60;99.90;;;;;;7300986;19;20187;-76
2023/12/22 06:12:17;;;;;;;31.63;4.27;;;10.60;99.90;;;;;;7279501;19;20183;-76
2023/12/22 06:14:42;;;;;;;26.00;4.50;;;10.50;99.90;;;;;;7278299;19;20189;-77
2023/12/22 06:17:08;;;;;;;18.77;4.07;;;10.40;99.90;;;;;;7278397;19;20684;-76
2023/12/22 06:19:35;;;;;;;37.20;4.43;;;10.40;99.90;;;;;;7278392;19;20188;-79
2023/12/22 06:22:01;;;;;;;21.17;3.97;;;10.50;99.90;;;;;;7279356;19;20210;-77
2023/12/22 06:24:27;;;;;;;22.93;3.70;;;10.50;99.90;;;;;;7277221;19;20198;-76
2023/12/22 06:26:53;;;;;;;22.03;3.57;;;10.60;99.90;;;;;;7292717;19;21075;-76
2023/12/22 06:29:19;;;;;;;16.97;2.73;;;10.60;99.90;;;;;;7295895;19;20212;-76
2023/12/22 06:31:50;;;;;;;23.70;3.50;;;10.60;99.90;;;;;;7279664;19;20267;-76
2023/12/22 06:34:16;;;;;;;23.93;3.10;;;10.50;99.90;;;;;;7277003;19;20191;-77
2023/12/22 06:36:42;;;;;;;18.07;2.70;;;10.60;99.90;;;;;;7278648;19;20954;-77
2023/12/22 06:39:08;;;;;;;20.43;3.00;;;10.60;99.90;;;;;;7287425;19;20643;-76
2023/12/22 06:41:34;;;;;;;18.80;2.90;;;10.60;99.90;;;;;;7285372;19;20244;-76
2023/12/22 06:44:00;;;;;;;19.23;2.93;;;10.60;99.90;;;;;;7284725;19;20667;-76
2023/12/22 06:46:27;;;;;;;18.83;2.73;;;10.60;99.90;;;;;;7284915;19;20190;-77
2023/12/22 06:48:53;;;;;;;22.03;2.33;;;10.70;99.90;;;;;;7305970;19;20607;-76
2023/12/22 06:51:27;;;;;;;19.97;2.57;;;10.70;99.90;;;;;;7283592;19;20207;-76
2023/12/22 06:53:54;;;;;;;20.07;2.90;;;10.70;99.90;;;;;;7285902;19;20194;-78
2023/12/22 06:56:22;;;;;;;18.87;2.70;;;10.70;99.90;;;;;;7287215;19;20191;-77
2023/12/22 06:58:50;;;;;;;15.47;2.30;;;10.80;99.90;;;;;;7287619;19;20567;-77
2023/12/22 07:01:29;;;;;;;14.27;2.20;;;10.90;99.90;;;;;;7287779;19;20210;-78
2023/12/22 07:03:55;;;;;;;13.90;2.20;;;10.80;99.90;;;;;;7266685;19;20211;-78
2023/12/22 07:06:22;;;;;;;11.13;2.13;;;10.90;99.90;;;;;;7307041;19;20193;-78
2023/12/22 07:08:57;;;;;;;13.67;2.37;;;11.00;99.90;;;;;;7286532;19;20192;-77
2023/12/22 07:11:23;;;;;;;12.57;2.00;;;11.10;99.90;;;;;;7281346;19;20403;-78
2023/12/22 07:13:49;;;;;;;17.57;2.63;;;11.10;99.90;;;;;;7296386;19;20652;-77
2023/12/22 07:16:15;;;;;;;14.07;2.20;;;11.10;99.90;;;;;;7286211;19;20200;-77
2023/12/22 07:18:41;;;;;;;19.77;2.70;;;11.20;99.90;;;;;;7286556;19;20196;-79
2023/12/22 07:21:07;;;;;;;12.97;2.33;;;11.20;99.90;;;;;;7285864;19;20217;-78
2023/12/22 07:23:33;;;;;;;14.67;2.13;;;11.20;99.90;;;;;;7286436;19;20211;-77
2023/12/22 07:25:58;;;;;;;13.80;2.20;;;11.20;99.90;;;;;;7286086;19;20187;-77
2023/12/22 07:28:24;;;;;;;13.97;2.27;;;11.20;99.90;;;;;;7292416;19;20200;-78
2023/12/22 07:30:50;;;;;;;11.57;1.70;;;11.10;99.90;;;;;;7307736;19;20646;-76
2023/12/22 07:33:16;;;;;;;13.70;2.03;;;11.10;99.90;;;;;;7286182;19;20191;-78
2023/12/22 07:35:41;;;;;;;13.60;1.80;;;11.10;99.90;;;;;;7283268;19;20259;-78
2023/12/22 07:38:08;;;;;;;11.43;1.90;;;11.20;99.90;;;;;;7286599;19;20536;-78
2023/12/22 07:40:34;;;;;;;9.30;1.53;;;11.10;99.90;;;;;;7284574;19;20191;-78
2023/12/22 07:43:00;;;;;;;7.50;1.50;;;11.10;99.90;;;;;;7283967;19;20556;-78
2023/12/22 07:45:26;;;;;;;10.23;1.80;;;11.10;99.90;;;;;;7286287;19;20194;-78
2023/12/22 07:47:54;;;;;;;6.60;1.20;;;11.10;99.90;;;;;;7292559;19;20191;-78
2023/12/22 07:50:21;;;;;;;9.73;1.60;;;11.00;99.90;;;;;;7305713;19;20229;-78
2023/12/22 07:52:47;;;;;;;7.80;1.23;;;11.00;99.90;;;;;;7285660;19;20215;-78
2023/12/22 07:55:12;;;;;;;6.63;1.77;;;10.90;99.90;;;;;;7284105;19;20198;-78
2023/12/22 07:57:38;;;;;;;6.47;1.70;;;10.90;99.90;;;;;;7284382;19;20286;-78
2023/12/22 08:00:05;;;;;;;6.73;1.73;;;10.80;99.90;;;;;;7285623;19;20233;-78
2023/12/22 08:02:37;;;;;;;6.07;1.10;;;10.90;99.90;;;;;;7286162;19;20650;-77
2023/12/22 08:05:04;;;;;;;7.83;1.13;;;11.00;99.90;;;;;;7283380;19;20202;-77
2023/12/22 08:07:30;;;;;;;7.40;1.27;;;11.00;99.90;;;;;;7284183;19;20523;-77
2023/12/22 08:09:56;;;;;;;5.93;1.13;;;11.00;99.90;;;;;;7285478;19;20284;-78
2023/12/22 08:12:22;;;;;;;5.77;1.00;;;10.90;99.90;;;;;;7305580;19;20187;-78
2023/12/22 08:14:48;;;;;;;10.50;1.37;;;10.80;99.90;;;;;;7285786;19;20263;-78
2023/12/22 08:17:14;;;;;;;8.00;1.60;;;10.80;99.90;;;;;;7284252;19;20269;-77
2023/12/22 08:19:42;;;;;;;7.50;1.53;;;10.80;99.90;;;;;;7283702;19;20191;-77
2023/12/22 08:22:10;;;;;;;7.57;1.80;;;10.80;99.90;;;;;;7281166;19;20687;-77
2023/12/22 08:24:36;;;;;;;5.20;1.80;;;10.90;99.90;;;;;;7283739;19;20183;-78
2023/12/22 08:27:02;;;;;;;8.40;2.43;;;10.90;99.90;;;;;;7283908;19;20224;-77
2023/12/22 08:29:28;;;;;;;8.60;2.43;;;10.90;99.90;;;;;;7283804;19;20191;-77
2023/12/22 08:31:54;;;;;;;10.03;2.53;;;10.90;99.90;;;;;;7299557;19;20198;-77
2023/12/22 08:34:20;;;;;;;10.07;2.87;;;10.90;99.90;;;;;;7307066;19;20260;-77
2023/12/22 08:36:45;;;;;;;10.10;3.10;;;10.80;99.90;;;;;;7283664;19;20253;-77
2023/12/22 08:39:12;;;;;;;11.30;3.03;;;10.70;99.90;;;;;;7284353;19;20223;-78
2023/12/22 08:41:38;;;;;;;8.87;3.43;;;10.70;99.90;;;;;;7282780;19;20187;-77
2023/12/22 08:44:07;;;;;;;14.37;3.80;;;10.70;99.90;;;;;;7283206;19;20531;-77
2023/12/22 08:46:34;;;;;;;11.67;3.37;;;10.80;99.90;;;;;;7283783;19;20190;-78
2023/12/22 08:48:59;;;;;;;9.73;3.03;;;10.80;99.90;;;;;;7283304;19;20196;-78
2023/12/22 08:51:28;;;;;;;8.73;3.43;;;10.80;99.90;;;;;;7287462;19;20192;-77
2023/12/22 08:53:55;;;;;;;11.63;3.00;;;10.90;99.90;;;;;;7298771;19;20236;-78
2023/12/22 08:56:24;;;;;;;11.10;3.03;;;10.90;99.90;;;;;;7307490;19;20192;-78
2023/12/22 08:58:55;;;;;;;12.67;3.23;;;11.00;99.90;;;;;;7284832;19;20187;-79
2023/12/22 09:01:21;;;;;;;10.97;2.87;;;11.10;99.90;;;;;;7285086;19;20279;-78
2023/12/22 09:03:48;;;;;;;10.67;2.60;;;11.10;99.90;;;;;;7284478;19;20193;-78
2023/12/22 09:06:18;;;;;;;7.37;2.77;;;11.20;99.90;;;;;;7284165;19;22117;-78
2023/12/22 09:08:44;;;;;;;13.40;2.90;;;11.20;99.90;;;;;;7280803;19;21160;-77
2023/12/22 09:11:15;;;;;;;12.97;2.57;;;11.30;99.90;;;;;;7283395;19;20753;-78
2023/12/22 09:13:41;;;;;;;12.10;2.20;;;11.30;99.90;;;;;;7283618;19;20202;-79
2023/12/22 09:16:08;;;;;;;8.43;2.40;;;11.30;99.90;;;;;;7284800;19;20186;-78
2023/12/22 09:18:34;;;;;;;9.23;2.60;;;11.40;99.90;;;;;;7283105;19;20412;-78
2023/12/22 09:21:01;;;;;;;7.80;2.20;;;11.50;99.90;;;;;;7283037;19;20216;-78
2023/12/22 09:23:27;;;;;;;10.57;1.83;;;11.60;99.90;;;;;;7283330;19;20316;-77
2023/12/22 09:25:53;;;;;;;10.50;2.10;;;11.50;99.90;;;;;;7303869;19;20209;-78
2023/12/22 09:28:18;;;;;;;5.23;1.57;;;11.50;99.90;;;;;;7283910;19;20203;-78
2023/12/22 09:30:44;;;;;;;6.17;1.60;;;11.50;99.90;;;;;;7284941;19;20656;-78
2023/12/22 09:33:10;;;;;;;11.77;1.63;;;11.60;99.90;;;;;;7283267;19;20185;-78
2023/12/22 09:35:36;;;;;;;8.60;1.43;;;11.60;99.90;;;;;;7282818;19;20181;-78
2023/12/22 09:38:03;;;;;;;10.37;1.70;;;11.60;99.90;;;;;;7283151;19;20191;-78
2023/12/22 09:40:30;;;;;;;9.47;1.57;;;11.70;99.90;;;;;;7277219;19;20192;-78
2023/12/22 09:42:58;;;;;;;7.63;1.67;;;11.80;99.90;;;;;;7275822;19;20206;-78
2023/12/22 09:45:24;;;;;;;5.73;1.33;;;11.80;99.90;;;;;;7304164;19;20195;-77
2023/12/22 09:47:51;;;;;;;7.67;1.47;;;11.70;99.90;;;;;;7282472;19;20539;-78
2023/12/22 09:50:17;;;;;;;7.70;1.30;;;11.70;99.90;;;;;;7282717;19;20216;-78
2023/12/22 09:52:44;;;;;;;5.23;1.10;;;11.70;99.90;;;;;;7283187;19;20196;-78
2023/12/22 09:55:12;;;;;;;7.57;1.40;;;11.70;99.90;;;;;;7280294;19;20189;-78
2023/12/22 09:57:39;;;;;;;5.23;1.10;;;11.70;99.90;;;;;;7282184;19;20185;-78
2023/12/22 10:00:09;;;;;;;5.20;1.07;;;11.70;99.90;;;;;;7281869;19;20192;-78
2023/12/22 10:02:36;;;;;;;4.80;1.13;;;11.70;99.90;;;;;;7282901;19;20195;-78
2023/12/22 10:05:02;;;;;;;7.30;1.07;;;11.80;99.90;;;;;;7281446;19;20657;-78
2023/12/22 10:07:29;;;;;;;7.17;1.07;;;11.80;99.90;;;;;;7281586;19;20187;-78
2023/12/22 10:09:57;;;;;;;2.67;0.97;;;11.90;99.90;;;;;;7289959;19;20190;-78
2023/12/22 10:12:25;;;;;;;6.93;1.90;;;12.00;99.90;;;;;;7307936;19;20188;-78
2023/12/22 10:14:52;;;;;;;6.20;1.43;;;12.00;99.90;;;;;;7288308;19;20275;-78
2023/12/22 10:17:19;;;;;;;3.43;1.10;;;12.00;99.90;;;;;;7284366;19;20196;-78
2023/12/22 10:19:45;;;;;;;9.37;1.43;;;12.00;99.90;;;;;;7288929;19;20273;-78
2023/12/22 10:22:10;;;;;;;4.67;1.20;;;11.90;99.90;;;;;;7287439;19;20281;-78
2023/12/22 10:24:44;;;;;;;4.10;1.30;;;11.80;99.90;;;;;;7287866;19;20196;-78
2023/12/22 10:27:11;;;;;;;6.17;1.20;;;11.70;99.90;;;;;;7288190;19;20197;-78
2023/12/22 10:29:37;;;;;;;6.37;1.10;;;11.80;99.90;;;;;;7287402;19;20225;-79
2023/12/22 10:32:04;;;;;;;7.07;1.10;;;11.70;99.90;;;;;;7287051;19;20213;-78
2023/12/22 10:34:30;;;;;;;5.03;1.00;;;11.70;99.90;;;;;;7284388;19;20187;-78
2023/12/22 10:37:00;;;;;;;4.97;0.97;;;11.70;99.90;;;;;;7284121;19;20641;-77
2023/12/22 10:39:30;;;;;;;6.93;1.50;;;11.70;99.90;;;;;;7286831;19;20556;-77
2023/12/22 10:41:59;;;;;;;3.70;1.10;;;11.70;99.90;;;;;;7287713;19;20198;-77
2023/12/22 10:44:26;;;;;;;6.20;1.20;;;11.80;99.90;;;;;;7296394;19;20229;-77
2023/12/22 10:46:53;;;;;;;5.00;1.20;;;12.00;99.90;;;;;;7305073;19;20197;-76
2023/12/22 10:49:19;;;;;;;2.50;0.90;;;11.90;99.90;;;;;;7282927;19;20723;-77
2023/12/22 10:51:45;;;;;;;7.77;1.33;;;12.00;99.90;;;;;;7284794;19;20195;-76
2023/12/22 10:54:11;;;;;;;4.50;1.30;;;12.00;99.90;;;;;;7283816;19;20646;-76
2023/12/22 10:56:36;;;;;;;2.80;0.90;;;12.00;99.90;;;;;;7282702;19;20193;-76
2023/12/22 10:59:04;;;;;;;5.10;1.30;;;12.00;99.90;;;;;;7282697;19;20192;-76
2023/12/22 11:01:33;;;;;;;4.80;1.20;;;12.10;99.90;;;;;;7282594;19;20185;-76
2023/12/22 11:04:02;;;;;;;4.83;1.50;;;12.00;99.90;;;;;;7283145;19;20199;-75
2023/12/22 11:06:33;;;;;;;5.63;1.60;;;12.00;99.90;;;;;;7284648;19;20185;-75
2023/12/22 11:09:01;;;;;;;4.03;1.60;;;11.90;99.90;;;;;;7283412;19;20188;-75
2023/12/22 11:11:30;;;;;;;6.17;1.60;;;11.90;99.90;;;;;;7283738;19;20256;-76
2023/12/22 11:13:57;;;;;;;5.87;1.50;;;11.80;99.90;;;;;;7283367;19;20200;-76
2023/12/22 11:16:25;;;;;;;4.10;1.23;;;11.80;99.90;;;;;;7303090;19;20199;-76
2023/12/22 11:18:57;;;;;;;6.53;1.53;;;11.70;99.90;;;;;;7283733;19;20195;-77
2023/12/22 11:21:24;;;;;;;4.13;1.20;;;11.70;99.90;;;;;;7282126;19;20196;-75
2023/12/22 11:23:51;;;;;;;4.73;1.13;;;11.70;99.90;;;;;;7282547;19;20185;-76
2023/12/22 11:26:22;;;;;;;4.03;1.27;;;11.70;99.90;;;;;;7282769;19;20196;-76
2023/12/22 11:28:50;;;;;;;6.13;1.20;;;11.80;99.90;;;;;;7281927;19;20193;-75
2023/12/22 11:31:20;;;;;;;5.00;1.10;;;11.90;99.90;;;;;;7282329;19;20240;-75
2023/12/22 11:33:48;;;;;;;5.17;1.50;;;11.90;99.90;;;;;;7282628;19;20255;-77
2023/12/22 11:36:15;;;;;;;4.97;1.23;;;11.90;99.90;;;;;;7281926;19;25721;-77
2023/12/22 11:38:42;;;;;;;5.60;1.20;;;12.10;99.90;;;;;;7284340;19;20204;-76
2023/12/22 11:41:10;;;;;;;6.07;1.20;;;12.10;99.90;;;;;;7279956;19;20190;-76
2023/12/22 11:43:38;;;;;;;7.43;1.37;;;12.30;99.90;;;;;;7280621;19;20197;-77
2023/12/22 11:46:04;;;;;;;5.30;1.60;;;12.30;99.90;;;;;;7281521;19;20184;-77
2023/12/22 11:48:30;;;;;;;4.87;1.30;;;12.40;99.90;;;;;;7280986;19;20327;-76
2023/12/22 11:50:57;;;;;;;4.10;1.10;;;12.30;99.90;;;;;;7280603;19;20188;-76
2023/12/22 11:53:24;;;;;;;4.43;1.20;;;12.20;99.90;;;;;;7301916;19;20189;-76
2023/12/22 11:55:59;;;;;;;7.03;1.00;;;12.20;99.90;;;;;;7282080;19;20191;-76
2023/12/22 11:58:38;;;;;;;6.67;1.17;;;12.10;99.90;;;;;;7276465;19;20180;-76
2023/12/22 12:01:13;;;;;;;2.47;0.90;;;12.20;99.90;;;;;;7280929;19;20275;-79
2023/12/22 12:04:05;;;;;;;3.13;1.00;;;12.10;99.90;;;;;;7281468;19;20212;-75
2023/12/22 12:06:33;;;;;;;2.97;1.10;;;12.10;99.90;;;;;;7180216;19;2004627;-76
2023/12/22 12:09:05;;;;;;;4.13;1.10;;;12.00;99.90;;;;;;7282810;19;20181;-76
2023/12/22 12:11:59;;;;;;;3.20;1.00;;;12.10;99.90;;;;;;7280679;19;20184;-75
2023/12/22 12:14:40;;;;;;;4.87;1.00;;;12.20;99.90;;;;;;7267490;19;20181;-76
2023/12/22 12:17:08;;;;;;;6.03;1.03;;;12.20;99.90;;;;;;7280148;19;20297;-76
2023/12/22 12:19:38;;;;;;;3.30;0.80;;;12.30;99.90;;;;;;7280256;19;20269;-77
2023/12/22 12:22:04;;;;;;;4.20;0.83;;;12.30;99.90;;;;;;7281092;19;20189;-76
2023/12/22 12:24:30;;;;;;;3.47;0.80;;;12.30;99.90;;;;;;7280488;19;20260;-76
2023/12/22 12:26:56;;;;;;;4.20;0.70;;;12.50;99.90;;;;;;7282612;19;20294;-76
2023/12/22 12:29:22;;;;;;;7.77;0.83;;;12.50;99.90;;;;;;7301746;19;20185;-76
2023/12/22 12:31:48;;;;;;;2.53;0.80;;;12.50;99.90;;;;;;7279982;19;20215;-76
2023/12/22 12:34:17;;;;;;;4.67;0.97;;;12.60;99.90;;;;;;7279103;19;20195;-77
2023/12/22 12:36:44;;;;;;;3.13;0.80;;;12.50;99.90;;;;;;7279593;19;20185;-77
2023/12/22 12:39:14;;;;;;;6.40;0.90;;;12.60;99.90;;;;;;7280014;19;20268;-76